sensor_id;sensor_type;location;lat;lon;timestamp;temperature;humidity
19088;DHT22;9676;50.916;13.352;2023-04-01T00:00:23;12.80;87.90
19088;DHT22;9676;50.916;13.352;2023-04-01T00:03:13;12.80;88.20
19088;DHT22;9676;50.916;13.352;2023-04-01T00:06:03;12.80;88.30
19088;DHT22;9676;50.916;13.352;2023-04-01T00:08:54;12.80;88.60
19088;DHT22;9676;50.916;13.352;2023-04-01T00:11:43;12.80;89.40
19088;DHT22;9676;50.916;13.352;2023-04-01T00:14:33;12.80;88.80
19088;DHT22;9676;50.916;13.352;2023-04-01T00:17:24;12.70;88.80
19088;DHT22;9676;50.916;13.352;2023-04-01T00:20:14;12.70;89.40
19088;DHT22;9676;50.916;13.352;2023-04-01T00:23:04;12.70;90.00
19088;DHT22;9676;50.916;13.352;2023-04-01T00:25:55;12.70;90.10
19088;DHT22;9676;50.916;13.352;2023-04-01T00:28:45;12.60;90.40
19088;DHT22;9676;50.916;13.352;2023-04-01T00:31:35;12.60;90.20
19088;DHT22;9676;50.916;13.352;2023-04-01T00:34:24;12.60;90.20
19088;DHT22;9676;50.916;13.352;2023-04-01T00:37:14;12.60;90.10
19088;DHT22;9676;50.916;13.352;2023-04-01T00:40:04;12.60;90.40
19088;DHT22;9676;50.916;13.352;2023-04-01T00:42:57;12.50;90.70
19088;DHT22;9676;50.916;13.352;2023-04-01T00:45:48;12.50;91.10
19088;DHT22;9676;50.916;13.352;2023-04-01T00:48:40;12.50;91.10
19088;DHT22;9676;50.916;13.352;2023-04-01T00:51:31;12.50;91.50
19088;DHT22;9676;50.916;13.352;2023-04-01T00:54:24;12.40;90.90
19088;DHT22;9676;50.916;13.352;2023-04-01T00:57:17;12.40;91.20
19088;DHT22;9676;50.916;13.352;2023-04-01T01:00:11;12.40;91.70
19088;DHT22;9676;50.916;13.352;2023-04-01T01:03:03;12.40;92.00
19088;DHT22;9676;50.916;13.352;2023-04-01T01:06:06;12.40;91.40
19088;DHT22;9676;50.916;13.352;2023-04-01T01:09:07;12.40;92.30
19088;DHT22;9676;50.916;13.352;2023-04-01T01:12:08;12.30;92.40
19088;DHT22;9676;50.916;13.352;2023-04-01T01:15:07;12.40;92.50
19088;DHT22;9676;50.916;13.352;2023-04-01T01:18:05;12.30;92.30
19088;DHT22;9676;50.916;13.352;2023-04-01T01:25:05;12.40;93.50
19088;DHT22;9676;50.916;13.352;2023-04-01T01:28:11;12.40;93.00
19088;DHT22;9676;50.916;13.352;2023-04-01T01:31:15;12.40;92.30
19088;DHT22;9676;50.916;13.352;2023-04-01T01:34:15;12.30;92.90
19088;DHT22;9676;50.916;13.352;2023-04-01T01:37:12;12.30;92.70
19088;DHT22;9676;50.916;13.352;2023-04-01T01:40:06;12.30;92.60
19088;DHT22;9676;50.916;13.352;2023-04-01T01:43:00;12.30;92.10
19088;DHT22;9676;50.916;13.352;2023-04-01T01:45:54;12.30;92.10
19088;DHT22;9676;50.916;13.352;2023-04-01T01:48:46;12.30;92.10
19088;DHT22;9676;50.916;13.352;2023-04-01T01:51:36;12.30;92.20
19088;DHT22;9676;50.916;13.352;2023-04-01T01:54:30;12.30;92.10
19088;DHT22;9676;50.916;13.352;2023-04-01T01:57:22;12.30;92.40
19088;DHT22;9676;50.916;13.352;2023-04-01T02:00:19;12.30;92.50
19088;DHT22;9676;50.916;13.352;2023-04-01T02:03:09;12.30;92.40
19088;DHT22;9676;50.916;13.352;2023-04-01T02:06:01;12.30;92.10
19088;DHT22;9676;50.916;13.352;2023-04-01T02:08:55;12.30;92.30
19088;DHT22;9676;50.916;13.352;2023-04-01T02:11:49;12.30;92.40
19088;DHT22;9676;50.916;13.352;2023-04-01T02:14:44;12.30;92.60
19088;DHT22;9676;50.916;13.352;2023-04-01T02:17:39;12.30;92.60
19088;DHT22;9676;50.916;13.352;2023-04-01T02:20:31;12.40;92.40
19088;DHT22;9676;50.916;13.352;2023-04-01T02:23:21;12.30;91.90
19088;DHT22;9676;50.916;13.352;2023-04-01T02:26:11;12.30;91.90
19088;DHT22;9676;50.916;13.352;2023-04-01T02:29:05;12.30;91.90
19088;DHT22;9676;50.916;13.352;2023-04-01T02:31:56;12.30;92.00
19088;DHT22;9676;50.916;13.352;2023-04-01T02:34:46;12.30;91.70
19088;DHT22;9676;50.916;13.352;2023-04-01T02:37:36;12.20;91.70
19088;DHT22;9676;50.916;13.352;2023-04-01T02:40:27;12.20;91.80
19088;DHT22;9676;50.916;13.352;2023-04-01T02:43:17;12.10;91.90
19088;DHT22;9676;50.916;13.352;2023-04-01T02:46:09;12.10;92.00
19088;DHT22;9676;50.916;13.352;2023-04-01T02:48:58;12.10;92.40
19088;DHT22;9676;50.916;13.352;2023-04-01T02:51:49;12.00;92.00
19088;DHT22;9676;50.916;13.352;2023-04-01T02:54:39;12.00;92.00
19088;DHT22;9676;50.916;13.352;2023-04-01T02:57:29;12.00;92.10
19088;DHT22;9676;50.916;13.352;2023-04-01T03:00:19;12.00;92.20
19088;DHT22;9676;50.916;13.352;2023-04-01T03:03:10;12.00;92.50
19088;DHT22;9676;50.916;13.352;2023-04-01T03:06:05;11.90;92.40
19088;DHT22;9676;50.916;13.352;2023-04-01T03:08:54;11.90;92.80
19088;DHT22;9676;50.916;13.352;2023-04-01T03:11:44;11.90;92.30
19088;DHT22;9676;50.916;13.352;2023-04-01T03:14:34;11.90;92.30
19088;DHT22;9676;50.916;13.352;2023-04-01T03:17:23;11.90;92.40
19088;DHT22;9676;50.916;13.352;2023-04-01T03:20:15;11.90;92.50
19088;DHT22;9676;50.916;13.352;2023-04-01T03:23:05;11.90;92.90
19088;DHT22;9676;50.916;13.352;2023-04-01T03:25:54;11.90;92.60
19088;DHT22;9676;50.916;13.352;2023-04-01T03:28:44;11.90;92.60
19088;DHT22;9676;50.916;13.352;2023-04-01T03:31:33;11.90;92.80
19088;DHT22;9676;50.916;13.352;2023-04-01T03:34:23;12.00;92.80
19088;DHT22;9676;50.916;13.352;2023-04-01T03:37:14;12.00;92.90
19088;DHT22;9676;50.916;13.352;2023-04-01T03:40:04;12.00;93.20
19088;DHT22;9676;50.916;13.352;2023-04-01T03:42:55;12.00;92.90
19088;DHT22;9676;50.916;13.352;2023-04-01T03:45:45;12.10;93.00
19088;DHT22;9676;50.916;13.352;2023-04-01T03:48:34;12.10;93.00
19088;DHT22;9676;50.916;13.352;2023-04-01T03:51:24;12.10;92.90
19088;DHT22;9676;50.916;13.352;2023-04-01T03:54:15;12.20;92.90
19088;DHT22;9676;50.916;13.352;2023-04-01T03:57:05;12.20;92.90
19088;DHT22;9676;50.916;13.352;2023-04-01T03:59:55;12.20;92.60
19088;DHT22;9676;50.916;13.352;2023-04-01T04:02:44;12.20;92.50
19088;DHT22;9676;50.916;13.352;2023-04-01T04:05:46;12.20;92.30
19088;DHT22;9676;50.916;13.352;2023-04-01T04:08:37;12.20;92.70
19088;DHT22;9676;50.916;13.352;2023-04-01T04:11:30;12.20;92.20
19088;DHT22;9676;50.916;13.352;2023-04-01T04:14:20;12.20;92.60
19088;DHT22;9676;50.916;13.352;2023-04-01T04:17:10;12.20;92.20
19088;DHT22;9676;50.916;13.352;2023-04-01T04:20:05;12.20;92.20
19088;DHT22;9676;50.916;13.352;2023-04-01T04:22:55;12.20;92.30
19088;DHT22;9676;50.916;13.352;2023-04-01T04:25:53;12.20;92.20
19088;DHT22;9676;50.916;13.352;2023-04-01T04:28:45;12.30;92.80
19088;DHT22;9676;50.916;13.352;2023-04-01T04:31:37;12.30;92.40
19088;DHT22;9676;50.916;13.352;2023-04-01T04:34:27;12.30;92.20
19088;DHT22;9676;50.916;13.352;2023-04-01T04:37:16;12.20;92.30
19088;DHT22;9676;50.916;13.352;2023-04-01T04:40:07;12.20;92.30
19088;DHT22;9676;50.916;13.352;2023-04-01T04:42:57;12.20;92.50
19088;DHT22;9676;50.916;13.352;2023-04-01T04:45:48;12.20;92.30
19088;DHT22;9676;50.916;13.352;2023-04-01T04:48:38;12.30;92.50
19088;DHT22;9676;50.916;13.352;2023-04-01T04:51:28;12.20;92.40
19088;DHT22;9676;50.916;13.352;2023-04-01T04:54:17;12.30;92.40
19088;DHT22;9676;50.916;13.352;2023-04-01T04:57:16;12.20;92.70
19088;DHT22;9676;50.916;13.352;2023-04-01T05:00:13;12.20;92.50
19088;DHT22;9676;50.916;13.352;2023-04-01T05:03:25;12.20;92.50
19088;DHT22;9676;50.916;13.352;2023-04-01T05:06:16;12.20;92.60
19088;DHT22;9676;50.916;13.352;2023-04-01T05:09:09;12.20;92.50
19088;DHT22;9676;50.916;13.352;2023-04-01T05:11:58;12.20;92.50
19088;DHT22;9676;50.916;13.352;2023-04-01T05:14:54;12.20;92.90
19088;DHT22;9676;50.916;13.352;2023-04-01T05:17:44;12.20;92.70
19088;DHT22;9676;50.916;13.352;2023-04-01T05:20:36;12.20;92.80
19088;DHT22;9676;50.916;13.352;2023-04-01T05:23:26;12.20;93.00
19088;DHT22;9676;50.916;13.352;2023-04-01T05:26:15;12.30;93.00
19088;DHT22;9676;50.916;13.352;2023-04-01T05:29:05;12.20;93.00
19088;DHT22;9676;50.916;13.352;2023-04-01T05:31:55;12.30;93.20
19088;DHT22;9676;50.916;13.352;2023-04-01T05:34:44;12.30;93.20
19088;DHT22;9676;50.916;13.352;2023-04-01T05:37:35;12.30;93.20
19088;DHT22;9676;50.916;13.352;2023-04-01T05:40:25;12.40;93.50
19088;DHT22;9676;50.916;13.352;2023-04-01T05:43:15;12.40;93.30
19088;DHT22;9676;50.916;13.352;2023-04-01T05:46:07;12.40;93.20
19088;DHT22;9676;50.916;13.352;2023-04-01T05:49:04;12.50;93.30
19088;DHT22;9676;50.916;13.352;2023-04-01T05:51:54;12.50;93.30
19088;DHT22;9676;50.916;13.352;2023-04-01T05:54:45;12.50;93.30
19088;DHT22;9676;50.916;13.352;2023-04-01T05:57:34;12.60;93.30
19088;DHT22;9676;50.916;13.352;2023-04-01T06:00:25;12.60;93.20
19088;DHT22;9676;50.916;13.352;2023-04-01T06:03:14;12.70;93.20
19088;DHT22;9676;50.916;13.352;2023-04-01T06:06:13;12.70;93.10
19088;DHT22;9676;50.916;13.352;2023-04-01T06:09:13;12.70;93.40
19088;DHT22;9676;50.916;13.352;2023-04-01T06:12:33;12.80;93.40
19088;DHT22;9676;50.916;13.352;2023-04-01T06:15:38;12.90;93.50
19088;DHT22;9676;50.916;13.352;2023-04-01T06:18:48;12.90;93.80
19088;DHT22;9676;50.916;13.352;2023-04-01T06:25:33;13.10;94.50
19088;DHT22;9676;50.916;13.352;2023-04-01T06:29:00;13.20;94.10
19088;DHT22;9676;50.916;13.352;2023-04-01T06:35:38;13.50;93.50
19088;DHT22;9676;50.916;13.352;2023-04-01T06:38:56;13.50;93.10
19088;DHT22;9676;50.916;13.352;2023-04-01T06:42:33;13.60;93.00
19088;DHT22;9676;50.916;13.352;2023-04-01T06:45:50;13.70;92.70
19088;DHT22;9676;50.916;13.352;2023-04-01T06:49:29;13.80;92.30
19088;DHT22;9676;50.916;13.352;2023-04-01T06:52:58;13.80;92.10
19088;DHT22;9676;50.916;13.352;2023-04-01T06:56:10;13.80;91.70
19088;DHT22;9676;50.916;13.352;2023-04-01T06:59:15;13.80;91.40
19088;DHT22;9676;50.916;13.352;2023-04-01T07:02:19;13.90;91.20
19088;DHT22;9676;50.916;13.352;2023-04-01T07:05:14;13.90;91.10
19088;DHT22;9676;50.916;13.352;2023-04-01T07:08:08;13.90;91.00
19088;DHT22;9676;50.916;13.352;2023-04-01T07:11:02;13.90;91.00
19088;DHT22;9676;50.916;13.352;2023-04-01T07:14:20;13.90;91.30
19088;DHT22;9676;50.916;13.352;2023-04-01T07:17:16;14.00;91.70
19088;DHT22;9676;50.916;13.352;2023-04-01T07:20:13;13.90;92.30
19088;DHT22;9676;50.916;13.352;2023-04-01T07:23:11;14.00;92.40
19088;DHT22;9676;50.916;13.352;2023-04-01T07:26:18;14.10;92.40
19088;DHT22;9676;50.916;13.352;2023-04-01T07:29:27;14.30;92.70
19088;DHT22;9676;50.916;13.352;2023-04-01T07:32:29;14.40;93.40
19088;DHT22;9676;50.916;13.352;2023-04-01T07:35:28;14.60;93.60
19088;DHT22;9676;50.916;13.352;2023-04-01T07:38:28;14.90;94.00
19088;DHT22;9676;50.916;13.352;2023-04-01T07:41:28;15.10;93.50
19088;DHT22;9676;50.916;13.352;2023-04-01T07:44:27;15.40;93.70
19088;DHT22;9676;50.916;13.352;2023-04-01T07:47:30;15.60;92.80
19088;DHT22;9676;50.916;13.352;2023-04-01T07:50:27;15.80;91.30
19088;DHT22;9676;50.916;13.352;2023-04-01T07:53:21;15.90;91.10
19088;DHT22;9676;50.916;13.352;2023-04-01T07:56:20;16.00;91.10
19088;DHT22;9676;50.916;13.352;2023-04-01T07:59:21;16.10;90.90
19088;DHT22;9676;50.916;13.352;2023-04-01T08:02:47;16.20;90.40
19088;DHT22;9676;50.916;13.352;2023-04-01T08:05:53;16.30;90.00
19088;DHT22;9676;50.916;13.352;2023-04-01T08:08:54;16.40;89.80
19088;DHT22;9676;50.916;13.352;2023-04-01T08:12:17;16.50;88.50
19088;DHT22;9676;50.916;13.352;2023-04-01T08:15:25;16.50;88.30
19088;DHT22;9676;50.916;13.352;2023-04-01T08:18:26;16.60;87.90
19088;DHT22;9676;50.916;13.352;2023-04-01T08:21:22;16.60;86.00
19088;DHT22;9676;50.916;13.352;2023-04-01T08:24:20;16.60;86.10
19088;DHT22;9676;50.916;13.352;2023-04-01T08:27:27;16.60;85.90
19088;DHT22;9676;50.916;13.352;2023-04-01T08:30:23;16.60;85.70
19088;DHT22;9676;50.916;13.352;2023-04-01T08:33:17;16.60;85.00
19088;DHT22;9676;50.916;13.352;2023-04-01T08:36:17;16.60;84.40
19088;DHT22;9676;50.916;13.352;2023-04-01T08:39:20;16.60;84.40
19088;DHT22;9676;50.916;13.352;2023-04-01T08:45:48;16.70;84.60
19088;DHT22;9676;50.916;13.352;2023-04-01T08:48:58;16.80;85.70
19088;DHT22;9676;50.916;13.352;2023-04-01T08:52:32;16.90;86.40
19088;DHT22;9676;50.916;13.352;2023-04-01T08:55:31;17.00;84.90
19088;DHT22;9676;50.916;13.352;2023-04-01T08:58:48;17.20;86.10
19088;DHT22;9676;50.916;13.352;2023-04-01T09:13:29;17.40;82.20
19088;DHT22;9676;50.916;13.352;2023-04-01T09:16:38;17.40;82.60
19088;DHT22;9676;50.916;13.352;2023-04-01T09:19:49;17.30;81.70
19088;DHT22;9676;50.916;13.352;2023-04-01T09:22:59;17.30;81.70
19088;DHT22;9676;50.916;13.352;2023-04-01T09:26:21;17.30;81.90
19088;DHT22;9676;50.916;13.352;2023-04-01T09:29:35;17.30;83.20
19088;DHT22;9676;50.916;13.352;2023-04-01T09:32:58;17.30;84.20
19088;DHT22;9676;50.916;13.352;2023-04-01T09:36:17;17.50;84.40
19088;DHT22;9676;50.916;13.352;2023-04-01T09:39:36;17.60;83.90
19088;DHT22;9676;50.916;13.352;2023-04-01T09:42:51;17.70;83.20
19088;DHT22;9676;50.916;13.352;2023-04-01T09:46:12;17.80;82.70
19088;DHT22;9676;50.916;13.352;2023-04-01T09:49:40;17.80;82.10
19088;DHT22;9676;50.916;13.352;2023-04-01T09:52:43;17.90;82.00
19088;DHT22;9676;50.916;13.352;2023-04-01T09:59:42;18.00;82.70
19088;DHT22;9676;50.916;13.352;2023-04-01T10:07:29;18.20;83.50
19088;DHT22;9676;50.916;13.352;2023-04-01T10:11:14;18.40;82.10
19088;DHT22;9676;50.916;13.352;2023-04-01T10:14:54;18.50;82.80
19088;DHT22;9676;50.916;13.352;2023-04-01T10:29:38;19.10;82.70
19088;DHT22;9676;50.916;13.352;2023-04-01T10:36:52;19.40;84.00
19088;DHT22;9676;50.916;13.352;2023-04-01T10:48:13;19.70;76.10
19088;DHT22;9676;50.916;13.352;2023-04-01T10:51:42;19.60;76.90
19088;DHT22;9676;50.916;13.352;2023-04-01T10:55:19;19.70;78.40
19088;DHT22;9676;50.916;13.352;2023-04-01T11:07:36;20.80;81.60
19088;DHT22;9676;50.916;13.352;2023-04-01T11:15:01;21.60;80.20
19088;DHT22;9676;50.916;13.352;2023-04-01T11:22:15;22.20;78.10
19088;DHT22;9676;50.916;13.352;2023-04-01T11:29:50;22.40;72.90
19088;DHT22;9676;50.916;13.352;2023-04-01T11:33:02;22.40;72.70
19088;DHT22;9676;50.916;13.352;2023-04-01T11:36:23;22.30;72.80
19088;DHT22;9676;50.916;13.352;2023-04-01T11:39:32;22.20;70.20
19088;DHT22;9676;50.916;13.352;2023-04-01T11:42:47;22.10;69.90
19088;DHT22;9676;50.916;13.352;2023-04-01T11:46:08;21.90;69.30
19088;DHT22;9676;50.916;13.352;2023-04-01T11:49:07;21.70;68.90
19088;DHT22;9676;50.916;13.352;2023-04-01T11:56:09;21.20;66.00
19088;DHT22;9676;50.916;13.352;2023-04-01T12:02:44;20.70;67.00
19088;DHT22;9676;50.916;13.352;2023-04-01T12:05:43;20.30;68.00
19088;DHT22;9676;50.916;13.352;2023-04-01T12:08:48;20.10;69.10
19088;DHT22;9676;50.916;13.352;2023-04-01T12:11:50;20.00;69.70
19088;DHT22;9676;50.916;13.352;2023-04-01T12:15:03;20.00;70.10
19088;DHT22;9676;50.916;13.352;2023-04-01T12:18:09;20.00;70.50
19088;DHT22;9676;50.916;13.352;2023-04-01T12:21:09;20.00;70.90
19088;DHT22;9676;50.916;13.352;2023-04-01T12:24:42;20.00;71.10
19088;DHT22;9676;50.916;13.352;2023-04-01T12:27:45;20.00;70.90
19088;DHT22;9676;50.916;13.352;2023-04-01T12:30:53;20.10;71.70
19088;DHT22;9676;50.916;13.352;2023-04-01T12:34:13;20.20;72.00
19088;DHT22;9676;50.916;13.352;2023-04-01T12:37:20;20.30;72.70
19088;DHT22;9676;50.916;13.352;2023-04-01T12:40:26;20.40;72.50
19088;DHT22;9676;50.916;13.352;2023-04-01T12:43:42;20.40;70.90
19088;DHT22;9676;50.916;13.352;2023-04-01T12:47:19;20.40;70.20
19088;DHT22;9676;50.916;13.352;2023-04-01T12:50:26;20.40;69.60
19088;DHT22;9676;50.916;13.352;2023-04-01T12:53:42;20.40;70.00
19088;DHT22;9676;50.916;13.352;2023-04-01T12:56:49;20.40;70.00
19088;DHT22;9676;50.916;13.352;2023-04-01T13:00:03;20.40;69.20
19088;DHT22;9676;50.916;13.352;2023-04-01T13:03:17;20.40;69.00
19088;DHT22;9676;50.916;13.352;2023-04-01T13:06:29;20.30;69.30
19088;DHT22;9676;50.916;13.352;2023-04-01T13:09:31;20.30;68.60
19088;DHT22;9676;50.916;13.352;2023-04-01T13:12:38;20.30;68.70
19088;DHT22;9676;50.916;13.352;2023-04-01T13:15:37;20.20;68.10
19088;DHT22;9676;50.916;13.352;2023-04-01T13:18:36;20.10;68.30
19088;DHT22;9676;50.916;13.352;2023-04-01T13:21:38;20.10;68.20
19088;DHT22;9676;50.916;13.352;2023-04-01T13:24:38;20.00;68.40
19088;DHT22;9676;50.916;13.352;2023-04-01T13:27:35;20.00;68.20
19088;DHT22;9676;50.916;13.352;2023-04-01T13:30:33;19.90;68.10
19088;DHT22;9676;50.916;13.352;2023-04-01T13:33:32;19.90;67.90
19088;DHT22;9676;50.916;13.352;2023-04-01T13:36:32;19.80;67.40
19088;DHT22;9676;50.916;13.352;2023-04-01T13:39:35;19.80;67.70
19088;DHT22;9676;50.916;13.352;2023-04-01T13:42:35;19.70;67.30
19088;DHT22;9676;50.916;13.352;2023-04-01T13:45:33;19.60;67.50
19088;DHT22;9676;50.916;13.352;2023-04-01T13:48:38;19.60;67.40
19088;DHT22;9676;50.916;13.352;2023-04-01T13:52:06;19.50;67.40
19088;DHT22;9676;50.916;13.352;2023-04-01T13:55:20;19.50;67.10
19088;DHT22;9676;50.916;13.352;2023-04-01T13:58:42;19.50;67.70
19088;DHT22;9676;50.916;13.352;2023-04-01T14:01:41;19.50;67.40
19088;DHT22;9676;50.916;13.352;2023-04-01T14:04:44;19.50;67.80
19088;DHT22;9676;50.916;13.352;2023-04-01T14:07:48;19.40;67.30
19088;DHT22;9676;50.916;13.352;2023-04-01T14:10:43;19.40;66.90
19088;DHT22;9676;50.916;13.352;2023-04-01T14:13:41;19.40;66.80
19088;DHT22;9676;50.916;13.352;2023-04-01T14:17:02;19.30;66.50
19088;DHT22;9676;50.916;13.352;2023-04-01T14:20:23;19.20;66.40
19088;DHT22;9676;50.916;13.352;2023-04-01T14:30:47;19.10;66.90
19088;DHT22;9676;50.916;13.352;2023-04-01T14:33:46;19.00;67.20
19088;DHT22;9676;50.916;13.352;2023-04-01T14:36:56;19.00;67.60
19088;DHT22;9676;50.916;13.352;2023-04-01T14:40:18;18.90;67.70
19088;DHT22;9676;50.916;13.352;2023-04-01T14:43:24;18.90;67.80
19088;DHT22;9676;50.916;13.352;2023-04-01T14:47:02;18.80;67.80
19088;DHT22;9676;50.916;13.352;2023-04-01T14:50:05;18.80;67.90
19088;DHT22;9676;50.916;13.352;2023-04-01T14:52:59;18.80;68.10
19088;DHT22;9676;50.916;13.352;2023-04-01T14:56:02;18.80;68.40
19088;DHT22;9676;50.916;13.352;2023-04-01T14:58:57;18.80;68.50
19088;DHT22;9676;50.916;13.352;2023-04-01T15:01:51;18.70;68.30
19088;DHT22;9676;50.916;13.352;2023-04-01T15:04:54;18.70;68.40
19088;DHT22;9676;50.916;13.352;2023-04-01T15:08:06;18.80;68.30
19088;DHT22;9676;50.916;13.352;2023-04-01T15:11:18;18.80;68.20
19088;DHT22;9676;50.916;13.352;2023-04-01T15:14:46;18.80;68.10
19088;DHT22;9676;50.916;13.352;2023-04-01T15:18:07;18.80;68.00
19088;DHT22;9676;50.916;13.352;2023-04-01T15:21:17;18.80;67.90
19088;DHT22;9676;50.916;13.352;2023-04-01T15:24:15;18.80;68.00
19088;DHT22;9676;50.916;13.352;2023-04-01T15:27:20;18.70;68.00
19088;DHT22;9676;50.916;13.352;2023-04-01T15:30:30;18.70;67.90
19088;DHT22;9676;50.916;13.352;2023-04-01T15:33:55;18.70;67.10
19088;DHT22;9676;50.916;13.352;2023-04-01T15:37:09;18.70;66.80
19088;DHT22;9676;50.916;13.352;2023-04-01T15:40:14;18.60;66.50
19088;DHT22;9676;50.916;13.352;2023-04-01T15:43:16;18.50;66.30
19088;DHT22;9676;50.916;13.352;2023-04-01T15:46:28;18.50;66.10
19088;DHT22;9676;50.916;13.352;2023-04-01T15:49:31;18.40;66.00
19088;DHT22;9676;50.916;13.352;2023-04-01T15:52:38;18.30;66.10
19088;DHT22;9676;50.916;13.352;2023-04-01T15:55:37;18.20;66.10
19088;DHT22;9676;50.916;13.352;2023-04-01T15:58:43;18.10;66.30
19088;DHT22;9676;50.916;13.352;2023-04-01T16:01:44;18.10;66.30
19088;DHT22;9676;50.916;13.352;2023-04-01T16:04:46;18.00;66.00
19088;DHT22;9676;50.916;13.352;2023-04-01T16:07:58;18.00;66.00
19088;DHT22;9676;50.916;13.352;2023-04-01T16:11:18;17.90;65.70
19088;DHT22;9676;50.916;13.352;2023-04-01T16:14:21;17.80;65.60
19088;DHT22;9676;50.916;13.352;2023-04-01T16:17:25;17.70;65.30
19088;DHT22;9676;50.916;13.352;2023-04-01T16:20:32;17.70;65.20
19088;DHT22;9676;50.916;13.352;2023-04-01T16:23:36;17.50;65.10
19088;DHT22;9676;50.916;13.352;2023-04-01T16:26:30;17.50;65.40
19088;DHT22;9676;50.916;13.352;2023-04-01T16:29:30;17.40;65.60
19088;DHT22;9676;50.916;13.352;2023-04-01T16:32:34;17.30;65.60
19088;DHT22;9676;50.916;13.352;2023-04-01T16:35:36;17.30;65.80
19088;DHT22;9676;50.916;13.352;2023-04-01T16:38:38;17.30;65.90
19088;DHT22;9676;50.916;13.352;2023-04-01T16:41:32;17.20;65.90
19088;DHT22;9676;50.916;13.352;2023-04-01T16:44:25;17.20;66.00
19088;DHT22;9676;50.916;13.352;2023-04-01T16:47:17;17.10;66.10
19088;DHT22;9676;50.916;13.352;2023-04-01T16:50:15;17.10;66.20
19088;DHT22;9676;50.916;13.352;2023-04-01T16:53:10;17.10;66.30
19088;DHT22;9676;50.916;13.352;2023-04-01T16:56:12;17.00;66.30
19088;DHT22;9676;50.916;13.352;2023-04-01T16:59:04;16.90;66.30
19088;DHT22;9676;50.916;13.352;2023-04-01T17:02:03;16.90;66.30
19088;DHT22;9676;50.916;13.352;2023-04-01T17:05:01;16.90;66.50
19088;DHT22;9676;50.916;13.352;2023-04-01T17:08:04;16.80;66.50
19088;DHT22;9676;50.916;13.352;2023-04-01T17:11:02;16.70;66.70
19088;DHT22;9676;50.916;13.352;2023-04-01T17:14:04;16.70;66.70
19088;DHT22;9676;50.916;13.352;2023-04-01T17:17:19;16.60;66.80
19088;DHT22;9676;50.916;13.352;2023-04-01T17:23:35;16.60;67.10
19088;DHT22;9676;50.916;13.352;2023-04-01T17:26:33;16.50;67.00
19088;DHT22;9676;50.916;13.352;2023-04-01T17:29:33;16.40;67.20
19088;DHT22;9676;50.916;13.352;2023-04-01T17:32:40;16.40;67.20
19088;DHT22;9676;50.916;13.352;2023-04-01T17:35:40;16.30;67.50
19088;DHT22;9676;50.916;13.352;2023-04-01T17:38:51;16.30;67.30
19088;DHT22;9676;50.916;13.352;2023-04-01T17:41:51;16.20;67.40
19088;DHT22;9676;50.916;13.352;2023-04-01T17:44:53;16.20;67.30
19088;DHT22;9676;50.916;13.352;2023-04-01T17:47:55;16.10;67.60
19088;DHT22;9676;50.916;13.352;2023-04-01T17:51:06;16.10;67.60
19088;DHT22;9676;50.916;13.352;2023-04-01T17:54:11;16.00;67.80
19088;DHT22;9676;50.916;13.352;2023-04-01T17:57:27;16.00;67.80
19088;DHT22;9676;50.916;13.352;2023-04-01T18:00:28;15.90;68.20
19088;DHT22;9676;50.916;13.352;2023-04-01T18:03:54;15.90;68.20
19088;DHT22;9676;50.916;13.352;2023-04-01T18:10:40;15.80;68.50
19088;DHT22;9676;50.916;13.352;2023-04-01T18:14:10;15.80;68.30
19088;DHT22;9676;50.916;13.352;2023-04-01T18:17:21;15.80;68.80
19088;DHT22;9676;50.916;13.352;2023-04-01T18:20:39;15.70;68.70
19088;DHT22;9676;50.916;13.352;2023-04-01T18:23:38;15.70;69.00
19088;DHT22;9676;50.916;13.352;2023-04-01T18:26:42;15.60;68.70
19088;DHT22;9676;50.916;13.352;2023-04-01T18:29:41;15.50;68.70
19088;DHT22;9676;50.916;13.352;2023-04-01T18:32:44;15.50;69.10
19088;DHT22;9676;50.916;13.352;2023-04-01T18:35:49;15.40;69.40
19088;DHT22;9676;50.916;13.352;2023-04-01T18:38:46;15.40;70.40
19088;DHT22;9676;50.916;13.352;2023-04-01T18:41:50;15.40;69.70
19088;DHT22;9676;50.916;13.352;2023-04-01T18:44:46;15.30;69.90
19088;DHT22;9676;50.916;13.352;2023-04-01T18:47:44;15.30;70.00
19088;DHT22;9676;50.916;13.352;2023-04-01T18:50:38;15.30;70.30
19088;DHT22;9676;50.916;13.352;2023-04-01T18:53:35;15.30;70.10
19088;DHT22;9676;50.916;13.352;2023-04-01T18:56:30;15.20;70.20
19088;DHT22;9676;50.916;13.352;2023-04-01T18:59:25;15.20;70.10
19088;DHT22;9676;50.916;13.352;2023-04-01T19:02:25;15.20;70.40
19088;DHT22;9676;50.916;13.352;2023-04-01T19:05:22;15.20;70.70
19088;DHT22;9676;50.916;13.352;2023-04-01T19:08:26;15.10;70.60
19088;DHT22;9676;50.916;13.352;2023-04-01T19:11:24;15.10;71.20
19088;DHT22;9676;50.916;13.352;2023-04-01T19:14:21;15.00;70.90
19088;DHT22;9676;50.916;13.352;2023-04-01T19:17:20;15.00;71.00
19088;DHT22;9676;50.916;13.352;2023-04-01T19:20:23;15.00;71.20
19088;DHT22;9676;50.916;13.352;2023-04-01T19:26:46;15.00;72.60
19088;DHT22;9676;50.916;13.352;2023-04-01T19:29:52;14.90;72.50
19088;DHT22;9676;50.916;13.352;2023-04-01T19:32:54;14.90;73.40
19088;DHT22;9676;50.916;13.352;2023-04-01T19:35:56;14.90;73.70
19088;DHT22;9676;50.916;13.352;2023-04-01T19:38:53;14.90;73.90
19088;DHT22;9676;50.916;13.352;2023-04-01T19:41:52;14.80;74.10
19088;DHT22;9676;50.916;13.352;2023-04-01T19:44:57;14.70;75.60
19088;DHT22;9676;50.916;13.352;2023-04-01T19:48:00;14.60;77.30
19088;DHT22;9676;50.916;13.352;2023-04-01T19:51:00;14.50;77.30
19088;DHT22;9676;50.916;13.352;2023-04-01T19:54:01;14.40;77.50
19088;DHT22;9676;50.916;13.352;2023-04-01T19:57:02;14.30;78.10
19088;DHT22;9676;50.916;13.352;2023-04-01T20:00:01;14.20;79.60
19088;DHT22;9676;50.916;13.352;2023-04-01T20:03:01;14.10;81.10
19088;DHT22;9676;50.916;13.352;2023-04-01T20:06:04;14.10;81.70
19088;DHT22;9676;50.916;13.352;2023-04-01T20:09:22;14.00;82.30
19088;DHT22;9676;50.916;13.352;2023-04-01T20:12:37;14.00;84.00
19088;DHT22;9676;50.916;13.352;2023-04-01T20:15:34;13.90;85.20
19088;DHT22;9676;50.916;13.352;2023-04-01T20:18:34;13.90;83.30
19088;DHT22;9676;50.916;13.352;2023-04-01T20:21:33;13.90;84.50
19088;DHT22;9676;50.916;13.352;2023-04-01T20:24:29;13.90;84.70
19088;DHT22;9676;50.916;13.352;2023-04-01T20:27:24;13.80;84.50
19088;DHT22;9676;50.916;13.352;2023-04-01T20:30:32;13.90;84.40
19088;DHT22;9676;50.916;13.352;2023-04-01T20:37:32;13.80;86.60
19088;DHT22;9676;50.916;13.352;2023-04-01T20:40:31;13.80;86.10
19088;DHT22;9676;50.916;13.352;2023-04-01T20:43:40;13.70;85.00
19088;DHT22;9676;50.916;13.352;2023-04-01T20:46:45;13.70;85.90
19088;DHT22;9676;50.916;13.352;2023-04-01T20:49:41;13.70;85.70
19088;DHT22;9676;50.916;13.352;2023-04-01T20:52:40;13.70;85.40
19088;DHT22;9676;50.916;13.352;2023-04-01T20:55:56;13.70;86.00